Hovedside
METAR-TAF:

METAR-TAF

Lufthavner :

Hanoi, Vietnam

breddegrad: 21-01N, lengdegrad: 105-48E, høyde over havet: 6 m

Gjeldene værobservasjon

Denne rapporten ble laget for 32 minutter siden, klokken 11:30 UTC
Vind 3 kt fra Øst, skiftende mellom Nord-nordøst og Øst-sørøst
Temperatur 26°C
Luftfuktighet 84%
Trykk 1008 hPa
Sikt: 6000 m
Få skyer i en høyde av 2200 ft

METAR: VVNB 201130Z 10003KT 030V120 6000 FEW022 26/23 Q1008 NOSIG

Tid: 19:02 (12:02 UTC)

Varsel

Denne rapporten ble laget for 1 time og 2 minutter siden, klokken 11:00 UTC
Varsel gyldig fra 20. klokken 12 UTC til 21. klokken 12 UTC
Vind 5 kt fra Øst
Sikt: 7000 m
Spredte skyer i en høyde av 1300 ft
Midlertidig
fra 20. klokken 20 UTC til 21. klokken 01 UTC
Sikt: 4000 m
Spredte skyer i en høyde av 700 ft
Brutte skyer i en høyde av 2000 ft
lett regn, dis

TAF: VVNB 201100Z 2012/2112 09005KT 7000 SCT013 TEMPO 2020/2101 4000 -RA BR SCT007 BKN020

Værobservasjoner og værvarsel for over 4000 flyplasser (METAR- og TAF-rapporter).

Tilgjengelige stasjoner er representert av de røde og gule prikkene på kartet.

Hold musepekeren over prikken for å se navnet på stasjonen.

Klikk så for å se værobservasjoner og -varsler.

For å forandre kartet kan du klikke på den grønne knappen med svart kryss for å zoome inn, på den grønne knappen med strek for å zoome ut, eller på de grønne pilene for å se tilstøtende kart.


METAR-TAF: